createdAt,value
2023-05-06T00:04:07.289Z,9.10
2023-05-06T00:09:29.472Z,8.00
2023-05-06T00:14:51.346Z,7.90
2023-05-06T00:20:13.366Z,8.40
2023-05-06T00:25:35.300Z,8.00
2023-05-06T00:30:57.348Z,8.40
2023-05-06T00:36:19.492Z,11.20
2023-05-06T00:41:41.445Z,10.00
2023-05-06T00:47:04.512Z,8.90
2023-05-06T00:52:26.515Z,10.00
2023-05-06T00:57:51.948Z,7.70
2023-05-06T01:03:17.321Z,9.00
2023-05-06T01:08:48.140Z,9.90
2023-05-06T01:14:36.632Z,8.40
2023-05-06T01:19:59.775Z,9.70
2023-05-06T01:25:23.091Z,7.20
2023-05-06T01:31:06.581Z,8.40
2023-05-06T01:36:41.451Z,8.90
2023-05-06T01:42:03.811Z,7.90
2023-05-06T01:47:25.903Z,9.40
2023-05-06T01:53:00.168Z,9.70
2023-05-06T01:58:22.039Z,8.10
2023-05-06T02:03:53.038Z,12.00
2023-05-06T02:09:15.146Z,9.40
2023-05-06T02:14:43.423Z,7.70
2023-05-06T02:20:06.113Z,8.70
2023-05-06T02:25:27.977Z,9.40
2023-05-06T02:30:49.775Z,8.60
2023-05-06T02:36:11.770Z,12.90
2023-05-06T02:41:33.619Z,11.80
2023-05-06T02:46:55.461Z,11.10
2023-05-06T02:52:17.375Z,10.00
2023-05-06T02:57:39.310Z,10.90
2023-05-06T03:03:01.348Z,12.20
2023-05-06T03:08:23.547Z,14.30
2023-05-06T03:13:45.845Z,13.20
2023-05-06T03:19:07.602Z,9.90
2023-05-06T03:24:29.645Z,10.00
2023-05-06T03:29:51.877Z,10.20
2023-05-06T03:35:16.734Z,9.40
2023-05-06T03:40:42.374Z,8.90
2023-05-06T03:46:04.655Z,12.00
2023-05-06T03:51:27.650Z,12.30
2023-05-06T03:56:49.910Z,11.30
2023-05-06T04:02:12.329Z,14.30
2023-05-06T04:07:37.113Z,13.40
2023-05-06T04:12:59.000Z,11.90
2023-05-06T04:18:23.115Z,13.80
2023-05-06T04:23:51.459Z,10.70
2023-05-06T04:29:16.047Z,13.40
2023-05-06T04:34:48.545Z,11.30
2023-05-06T04:40:13.815Z,14.50
2023-05-06T04:45:40.283Z,12.50
2023-05-06T04:51:04.427Z,13.80
2023-05-06T04:56:26.862Z,12.60
2023-05-06T05:01:49.060Z,7.70
2023-05-06T05:07:11.110Z,7.90
2023-05-06T05:12:33.591Z,9.10
2023-05-06T05:17:56.873Z,13.90
2023-05-06T05:23:21.696Z,10.60
2023-05-06T05:28:44.370Z,9.80
2023-05-06T05:34:07.747Z,10.60
2023-05-06T05:39:29.348Z,11.80
2023-05-06T05:44:51.543Z,12.80
2023-05-06T05:50:15.179Z,8.40
2023-05-06T05:55:38.821Z,9.00
2023-05-06T06:01:01.822Z,8.30
2023-05-06T06:06:26.989Z,9.10
2023-05-06T06:11:48.674Z,9.80
2023-05-06T06:17:11.403Z,13.20
2023-05-06T06:22:37.264Z,10.00
2023-05-06T06:27:59.645Z,10.40
2023-05-06T06:33:21.402Z,9.20
2023-05-06T06:38:43.191Z,9.90
2023-05-06T06:44:05.501Z,13.40
2023-05-06T06:49:32.554Z,11.80
2023-05-06T06:54:54.480Z,14.20
2023-05-06T07:00:18.101Z,17.00
2023-05-06T07:05:39.740Z,15.70
2023-05-06T07:11:01.817Z,17.70
2023-05-06T07:16:23.570Z,15.20
2023-05-06T07:21:45.141Z,13.90
2023-05-06T07:27:07.525Z,15.00
2023-05-06T07:32:29.490Z,11.80
2023-05-06T07:37:51.683Z,10.60
2023-05-06T07:43:15.852Z,11.20
2023-05-06T07:48:37.357Z,13.70
2023-05-06T07:53:59.365Z,13.20
2023-05-06T07:59:21.222Z,18.60
2023-05-06T08:04:43.306Z,15.70
2023-05-06T08:10:06.035Z,14.80
2023-05-06T08:15:28.099Z,15.00
2023-05-06T08:20:51.213Z,12.50
2023-05-06T08:26:15.633Z,11.80
2023-05-06T08:31:37.591Z,11.20
2023-05-06T08:36:59.874Z,13.10
2023-05-06T08:42:22.495Z,14.90
2023-05-06T08:47:44.425Z,17.90
2023-05-06T08:53:06.435Z,19.30
2023-05-06T08:58:27.999Z,14.00
2023-05-06T09:03:50.322Z,12.90
2023-05-06T09:09:14.828Z,14.20
2023-05-06T09:14:36.647Z,12.00
2023-05-06T09:20:00.368Z,14.20
2023-05-06T09:25:22.217Z,16.10
2023-05-06T09:30:47.678Z,13.90
2023-05-06T09:36:13.600Z,19.60
2023-05-06T09:41:38.955Z,59.70
2023-05-06T09:47:00.867Z,23.20
2023-05-06T09:52:23.371Z,21.40
2023-05-06T09:57:45.831Z,23.80
2023-05-06T10:03:08.254Z,18.70
2023-05-06T10:08:35.708Z,28.90
2023-05-06T10:13:58.052Z,70.10
2023-05-06T10:19:25.826Z,25.20
2023-05-06T10:25:05.950Z,19.30
2023-05-06T10:30:28.636Z,27.60
2023-05-06T10:36:18.658Z,26.60
2023-05-06T10:41:41.148Z,20.60
2023-05-06T10:47:05.811Z,21.50
2023-05-06T10:52:44.302Z,22.10
2023-05-06T10:58:14.204Z,28.00
2023-05-06T11:03:36.485Z,28.70
2023-05-06T11:08:58.356Z,26.90
2023-05-06T11:14:26.496Z,20.30
2023-05-06T11:19:48.494Z,19.50
2023-05-06T11:25:10.607Z,22.30
2023-05-06T11:30:33.355Z,20.20
2023-05-06T11:35:55.088Z,21.20
2023-05-06T11:41:18.392Z,92.10
2023-05-06T11:46:40.155Z,48.70
2023-05-06T11:52:03.452Z,40.40
2023-05-06T11:57:25.754Z,25.30
2023-05-06T12:02:47.349Z,26.90
2023-05-06T12:08:23.505Z,29.50
2023-05-06T12:13:48.466Z,27.20
2023-05-06T12:19:11.120Z,31.90
2023-05-06T12:24:33.521Z,25.00
2023-05-06T12:29:56.884Z,26.40
2023-05-06T12:35:29.253Z,28.90
2023-05-06T12:40:55.281Z,23.00
2023-05-06T12:46:17.300Z,35.90
2023-05-06T12:51:39.226Z,20.50
2023-05-06T12:57:01.645Z,34.80
2023-05-06T13:02:23.903Z,31.10
2023-05-06T13:07:45.922Z,39.20
2023-05-06T13:13:08.138Z,57.60
2023-05-06T13:18:30.390Z,46.30
2023-05-06T13:23:52.113Z,117.50
2023-05-06T13:29:14.204Z,41.20
2023-05-06T13:34:36.325Z,34.20
2023-05-06T13:39:58.375Z,36.10
2023-05-06T13:45:20.609Z,33.40
2023-05-06T13:50:44.416Z,32.20
2023-05-06T13:56:07.840Z,35.90
2023-05-06T14:01:29.775Z,35.00
2023-05-06T14:06:55.163Z,33.10
2023-05-06T14:12:16.808Z,37.90
2023-05-06T14:17:38.684Z,38.80
2023-05-06T14:23:00.599Z,33.50
2023-05-06T14:28:22.781Z,36.50
2023-05-06T14:33:45.180Z,33.50
2023-05-06T14:39:07.002Z,29.80
2023-05-06T14:44:28.805Z,33.90
2023-05-06T14:49:50.570Z,33.30
2023-05-06T14:55:12.868Z,39.00
2023-05-06T15:00:35.276Z,49.30
2023-05-06T15:05:57.128Z,39.00
2023-05-06T15:11:21.976Z,33.60
2023-05-06T15:16:44.050Z,30.40
2023-05-06T15:22:09.036Z,32.20
2023-05-06T15:27:32.139Z,31.40
2023-05-06T15:32:55.078Z,50.70
2023-05-06T15:38:17.100Z,64.10
2023-05-06T15:43:38.894Z,35.00
2023-05-06T15:54:27.231Z,36.80
2023-05-06T15:59:52.343Z,29.70
2023-05-06T16:05:13.948Z,40.30
2023-05-06T16:10:36.202Z,31.60
2023-05-06T16:15:59.338Z,31.50
2023-05-06T16:21:24.827Z,35.00
2023-05-06T16:26:46.527Z,38.70
2023-05-06T16:32:08.435Z,33.50
2023-05-06T16:37:30.366Z,35.60
2023-05-06T16:42:52.097Z,46.40
2023-05-06T16:48:14.750Z,28.30
2023-05-06T16:53:36.847Z,40.20
2023-05-06T16:58:58.494Z,43.20
2023-05-06T17:04:20.417Z,33.80
2023-05-06T17:09:42.540Z,31.40
2023-05-06T17:15:05.242Z,44.10
2023-05-06T17:20:27.349Z,31.10
2023-05-06T17:25:49.608Z,32.10
2023-05-06T17:31:12.111Z,35.40
2023-05-06T17:36:34.192Z,32.70
2023-05-06T17:41:55.832Z,33.00
2023-05-06T17:47:17.543Z,29.10
2023-05-06T17:52:39.699Z,33.50
2023-05-06T17:58:01.808Z,32.80
2023-05-06T18:03:23.952Z,35.40
2023-05-06T18:08:45.972Z,36.00
2023-05-06T18:14:08.885Z,38.00
2023-05-06T18:19:30.831Z,32.30
2023-05-06T18:24:55.314Z,36.10
2023-05-06T18:30:17.407Z,29.80
2023-05-06T18:35:38.879Z,31.70
2023-05-06T18:41:02.066Z,34.40
2023-05-06T18:46:23.708Z,38.10
2023-05-06T18:51:45.508Z,40.80
2023-05-06T18:57:07.849Z,41.80
2023-05-06T19:02:29.802Z,45.10
2023-05-06T19:07:51.712Z,36.40
2023-05-06T19:13:16.466Z,35.00
2023-05-06T19:18:39.626Z,31.50
2023-05-06T19:24:02.181Z,36.00
2023-05-06T19:29:23.853Z,31.20
2023-05-06T19:34:46.203Z,34.00
2023-05-06T19:40:09.326Z,30.80
2023-05-06T19:45:32.698Z,29.30
2023-05-06T19:50:54.580Z,39.00
2023-05-06T19:56:17.340Z,37.00
2023-05-06T20:01:39.365Z,32.00
2023-05-06T20:07:01.574Z,28.10
2023-05-06T20:12:26.497Z,31.20
2023-05-06T20:17:48.184Z,35.90
2023-05-06T20:23:09.986Z,31.40
2023-05-06T20:28:33.249Z,27.70
2023-05-06T20:33:57.611Z,28.00
2023-05-06T20:39:19.372Z,28.30
2023-05-06T20:44:41.296Z,27.10
2023-05-06T20:50:03.738Z,21.40
2023-05-06T20:55:26.033Z,18.90
2023-05-06T21:00:47.738Z,21.70
2023-05-06T21:06:09.919Z,21.80
2023-05-06T21:11:31.436Z,18.80
2023-05-06T21:16:53.473Z,19.30
2023-05-06T21:22:15.530Z,20.60
2023-05-06T21:27:37.246Z,22.00
2023-05-06T21:32:59.006Z,20.10
2023-05-06T21:38:21.188Z,23.10
2023-05-06T21:43:42.915Z,23.10
2023-05-06T21:49:05.116Z,19.20
2023-05-06T21:54:26.673Z,20.00
2023-05-06T21:59:48.438Z,19.70
2023-05-06T22:05:10.768Z,17.50
2023-05-06T22:10:32.863Z,18.80
2023-05-06T22:15:54.696Z,18.40
2023-05-06T22:21:16.823Z,17.40
2023-05-06T22:26:38.788Z,16.10
2023-05-06T22:32:01.293Z,14.60
2023-05-06T22:37:23.322Z,19.30
2023-05-06T22:42:44.938Z,18.30
2023-05-06T22:48:06.418Z,14.90
2023-05-06T22:53:31.105Z,17.80
2023-05-06T22:58:56.050Z,17.00
2023-05-06T23:04:17.936Z,17.60
2023-05-06T23:09:39.506Z,17.10
2023-05-06T23:15:01.754Z,15.60
2023-05-06T23:20:23.582Z,16.20
2023-05-06T23:25:45.555Z,15.70
2023-05-06T23:31:07.510Z,22.60
2023-05-06T23:36:29.206Z,47.60
2023-05-06T23:41:50.893Z,19.20
2023-05-06T23:47:12.433Z,26.80
2023-05-06T23:52:34.366Z,31.60
2023-05-06T23:57:56.572Z,26.90
